Time;durP1;ratioP1;P1;durP2;ratioP2;P2;SDS_P1;SDS_P2;PMS_P1;PMS_P2;Temp;Humidity;BMP_temperature;BMP_pressure;BME280_temperature;BME280_humidity;BME280_pressure;Samples;Min_cycle;Max_cycle;Signal;HPM_P1;HPM_P2
2021/04/20 00:01:55;;;;;;;16.60;12.63;;;8.50;99.90;;;;;;5096687;28;20028;-73
2021/04/20 00:04:21;;;;;;;19.20;12.88;;;8.50;99.90;;;;;;5114905;28;20031;-73
2021/04/20 00:06:47;;;;;;;17.17;11.85;;;8.50;99.90;;;;;;5114837;28;20036;-72
2021/04/20 00:09:13;;;;;;;18.52;12.20;;;8.50;99.90;;;;;;5096547;28;20077;-70
2021/04/20 00:11:40;;;;;;;18.35;11.88;;;8.50;99.90;;;;;;5115003;28;20024;-73
2021/04/20 00:14:07;;;;;;;19.77;12.63;;;8.50;99.90;;;;;;5096497;28;20031;-71
2021/04/20 00:16:33;;;;;;;18.63;11.15;;;8.50;99.90;;;;;;5114754;28;20036;-72
2021/04/20 00:18:59;;;;;;;17.17;10.75;;;8.50;99.90;;;;;;5114372;28;20464;-71
2021/04/20 00:21:25;;;;;;;14.30;10.13;;;8.50;99.90;;;;;;5114552;28;20046;-71
2021/04/20 00:23:51;;;;;;;13.43;9.75;;;8.50;99.90;;;;;;5095934;28;20387;-71
2021/04/20 00:26:17;;;;;;;17.92;10.00;;;8.50;99.90;;;;;;5114519;28;20054;-74
2021/04/20 00:28:43;;;;;;;13.43;9.48;;;8.50;99.90;;;;;;5130298;27;20114;-72
2021/04/20 00:31:09;;;;;;;15.48;10.30;;;8.40;99.90;;;;;;5096109;28;20111;-71
2021/04/20 00:33:35;;;;;;;13.88;9.63;;;8.40;99.90;;;;;;5114388;28;20513;-72
2021/04/20 00:36:00;;;;;;;12.75;9.45;;;8.50;99.90;;;;;;5095984;28;20024;-71
2021/04/20 00:38:26;;;;;;;13.10;9.43;;;8.50;99.90;;;;;;5113810;28;20157;-74
2021/04/20 00:40:52;;;;;;;14.57;9.25;;;8.40;99.90;;;;;;5095907;28;20059;-70
2021/04/20 00:43:31;;;;;;;12.57;8.57;;;8.50;99.90;;;;;;5114463;28;20050;-71
2021/04/20 00:45:57;;;;;;;10.80;7.95;;;8.40;99.90;;;;;;5095879;28;20463;-72
2021/04/20 00:48:22;;;;;;;10.15;7.80;;;8.50;99.90;;;;;;5129568;27;20035;-74
2021/04/20 00:50:48;;;;;;;10.90;8.45;;;8.40;99.90;;;;;;5114059;28;20039;-73
2021/04/20 00:53:14;;;;;;;12.32;7.93;;;8.40;99.90;;;;;;5114026;28;20081;-71
2021/04/20 00:55:40;;;;;;;10.65;8.38;;;8.40;99.90;;;;;;5113628;28;20161;-70
2021/04/20 00:58:06;;;;;;;10.27;7.95;;;8.40;99.90;;;;;;5113862;28;20031;-70
2021/04/20 01:00:33;;;;;;;11.30;8.18;;;8.30;99.90;;;;;;5114192;28;20031;-70
2021/04/20 01:02:59;;;;;;;15.30;10.55;;;8.30;99.90;;;;;;5113859;28;20027;-72
2021/04/20 01:05:35;;;;;;;14.45;9.75;;;8.30;99.90;;;;;;5095609;28;20069;-71
2021/04/20 01:08:05;;;;;;;12.18;8.23;;;8.30;99.90;;;;;;5095539;28;20116;-70
2021/04/20 01:10:43;;;;;;;12.80;9.07;;;8.30;99.90;;;;;;5113809;28;20030;-71
2021/04/20 01:13:10;;;;;;;12.82;8.45;;;8.30;99.90;;;;;;5113779;28;20106;-70
2021/04/20 01:15:37;;;;;;;11.43;8.32;;;8.30;99.90;;;;;;5095340;28;20045;-71
2021/04/20 01:18:25;;;;;;;11.20;8.73;;;8.20;99.90;;;;;;5095328;28;20065;-70
2021/04/20 01:20:55;;;;;;;11.82;8.63;;;8.20;99.90;;;;;;5113678;28;20498;-71
2021/04/20 01:23:47;;;;;;;12.07;8.85;;;8.20;99.90;;;;;;5113892;28;20024;-72
2021/04/20 01:26:13;;;;;;;11.30;8.02;;;8.20;99.90;;;;;;5083893;27;20044;-70
2021/04/20 01:28:39;;;;;;;11.30;7.95;;;8.20;99.90;;;;;;5113645;28;20028;-70
2021/04/20 01:31:05;;;;;;;9.52;8.15;;;8.10;99.90;;;;;;5095227;28;20065;-72
2021/04/20 01:33:32;;;;;;;11.68;7.97;;;8.10;99.90;;;;;;5095161;28;20031;-71
2021/04/20 01:35:58;;;;;;;14.10;7.43;;;8.10;99.90;;;;;;5113509;28;20031;-71
2021/04/20 01:38:24;;;;;;;8.77;7.20;;;8.10;99.90;;;;;;5094995;28;20039;-71
2021/04/20 01:40:50;;;;;;;10.05;7.07;;;8.10;99.90;;;;;;5095120;28;20024;-72
2021/04/20 01:43:16;;;;;;;9.00;6.93;;;8.10;99.90;;;;;;5113413;28;20448;-74
2021/04/20 01:45:43;;;;;;;10.18;7.68;;;8.10;99.90;;;;;;5095117;28;20050;-74
2021/04/20 01:48:10;;;;;;;10.98;7.50;;;8.10;99.90;;;;;;5095036;28;20035;-74
2021/04/20 01:50:40;;;;;;;9.90;7.45;;;8.10;99.90;;;;;;5117130;28;20050;-72
2021/04/20 01:53:07;;;;;;;10.15;7.55;;;8.10;99.90;;;;;;5117761;28;20489;-72
2021/04/20 01:55:33;;;;;;;9.35;7.32;;;8.10;99.90;;;;;;5117424;28;20023;-73
2021/04/20 01:58:00;;;;;;;8.32;6.65;;;8.10;99.90;;;;;;5098985;28;20084;-72
2021/04/20 02:00:27;;;;;;;9.02;6.72;;;8.10;99.90;;;;;;5099052;28;20118;-72
2021/04/20 02:02:52;;;;;;;8.30;6.57;;;8.00;99.90;;;;;;5098960;28;20024;-72
2021/04/20 02:05:21;;;;;;;8.48;6.60;;;8.00;99.90;;;;;;5098961;28;20024;-72
2021/04/20 02:07:47;;;;;;;11.15;7.25;;;8.00;99.90;;;;;;5117457;28;20028;-72
2021/04/20 02:10:14;;;;;;;9.60;6.97;;;8.00;99.90;;;;;;5117451;28;20035;-72
2021/04/20 02:12:41;;;;;;;10.15;6.70;;;8.00;99.90;;;;;;5098768;28;20479;-72
2021/04/20 02:15:10;;;;;;;8.73;7.00;;;8.00;99.90;;;;;;5117058;28;20023;-72
2021/04/20 02:17:37;;;;;;;9.65;7.60;;;8.00;99.90;;;;;;5116881;28;20039;-70
2021/04/20 02:20:07;;;;;;;7.88;6.70;;;8.00;99.90;;;;;;5117039;28;20019;-71
2021/04/20 02:22:38;;;;;;;7.88;6.93;;;8.00;99.90;;;;;;5116652;28;20023;-71
2021/04/20 02:25:08;;;;;;;11.00;7.32;;;8.00;99.90;;;;;;5098337;28;20067;-72
2021/04/20 02:27:35;;;;;;;9.30;6.90;;;8.00;99.90;;;;;;5098493;28;20051;-71
2021/04/20 02:30:05;;;;;;;10.15;7.10;;;8.00;99.90;;;;;;5116853;28;20019;-71
2021/04/20 02:32:35;;;;;;;9.45;6.88;;;8.00;99.90;;;;;;5117140;28;20023;-73
2021/04/20 02:35:02;;;;;;;9.88;7.55;;;8.00;99.90;;;;;;5116418;28;20536;-72
2021/04/20 02:37:29;;;;;;;9.18;7.30;;;8.00;99.90;;;;;;5116501;28;20065;-71
2021/04/20 02:39:55;;;;;;;11.40;7.50;;;8.00;99.90;;;;;;5098055;28;20028;-72
2021/04/20 02:42:22;;;;;;;10.32;7.90;;;8.00;99.90;;;;;;5098181;28;20047;-72
2021/04/20 02:44:48;;;;;;;10.93;8.20;;;8.00;99.90;;;;;;5116246;28;20387;-72
2021/04/20 02:47:14;;;;;;;12.18;8.25;;;8.00;99.90;;;;;;5098087;28;20032;-72
2021/04/20 02:49:40;;;;;;;8.15;6.72;;;7.90;99.90;;;;;;5098141;28;20080;-72
2021/04/20 02:52:06;;;;;;;8.57;7.13;;;7.90;99.90;;;;;;5116392;28;20059;-70
2021/04/20 02:54:32;;;;;;;9.80;7.50;;;7.90;99.90;;;;;;5116305;28;20028;-72
2021/04/20 02:57:01;;;;;;;9.05;7.00;;;7.90;99.90;;;;;;5097918;28;20040;-73
2021/04/20 02:59:28;;;;;;;9.50;7.05;;;7.80;99.90;;;;;;5116252;28;20039;-71
2021/04/20 03:01:57;;;;;;;9.10;6.82;;;7.80;99.90;;;;;;5115580;28;20035;-69
2021/04/20 03:04:23;;;;;;;10.43;7.88;;;7.80;99.90;;;;;;5115860;28;20376;-72
2021/04/20 03:06:49;;;;;;;10.77;8.35;;;7.80;99.90;;;;;;5097724;28;20031;-72
2021/04/20 03:09:15;;;;;;;15.20;9.85;;;7.80;99.90;;;;;;5115976;28;20032;-70
2021/04/20 03:11:55;;;;;;;20.08;12.40;;;7.80;99.90;;;;;;5116003;28;20024;-70
2021/04/20 03:14:23;;;;;;;20.70;12.43;;;7.80;99.90;;;;;;5116008;28;20024;-70
2021/04/20 03:16:49;;;;;;;13.95;9.48;;;7.80;99.90;;;;;;5097554;28;20042;-68
2021/04/20 03:19:15;;;;;;;13.75;9.95;;;7.80;99.90;;;;;;5115597;28;20023;-69
2021/04/20 03:21:42;;;;;;;16.88;9.95;;;7.70;99.90;;;;;;5115789;28;20031;-71
2021/04/20 03:24:29;;;;;;;12.68;9.13;;;7.70;99.90;;;;;;5097463;28;20051;-69
2021/04/20 03:26:55;;;;;;;12.55;9.60;;;7.70;99.90;;;;;;5115745;28;20476;-72
2021/04/20 03:29:23;;;;;;;14.43;9.23;;;7.70;99.90;;;;;;5115702;28;20035;-73
2021/04/20 03:31:49;;;;;;;14.40;10.45;;;7.70;99.90;;;;;;5115543;28;20027;-72
2021/04/20 03:34:25;;;;;;;12.98;8.77;;;7.60;99.90;;;;;;5097479;28;20032;-72
2021/04/20 03:37:01;;;;;;;14.80;10.18;;;7.60;99.90;;;;;;5115217;28;20031;-72
2021/04/20 03:39:29;;;;;;;13.65;10.50;;;7.60;99.90;;;;;;5115169;28;20559;-71
2021/04/20 03:42:03;;;;;;;16.83;10.50;;;7.60;99.90;;;;;;5115432;28;20031;-72
2021/04/20 03:44:42;;;;;;;18.42;9.65;;;7.60;99.90;;;;;;5115146;28;20467;-72
2021/04/20 03:47:13;;;;;;;13.45;9.45;;;7.60;99.90;;;;;;5115616;28;20042;-73
2021/04/20 03:49:43;;;;;;;14.40;10.02;;;7.60;99.90;;;;;;5097030;28;20019;-71
2021/04/20 03:52:22;;;;;;;12.77;9.63;;;7.60;99.90;;;;;;5097348;28;20118;-72
2021/04/20 03:54:50;;;;;;;18.02;10.70;;;7.60;99.90;;;;;;5115461;28;20437;-72
2021/04/20 03:57:19;;;;;;;17.67;9.85;;;7.60;99.90;;;;;;5115235;28;20056;-72
2021/04/20 03:59:46;;;;;;;16.58;11.52;;;7.60;99.90;;;;;;5115042;28;20457;-72
2021/04/20 04:02:13;;;;;;;20.45;11.88;;;7.60;99.90;;;;;;5096694;28;20031;-72
2021/04/20 04:04:43;;;;;;;18.23;11.95;;;7.60;99.90;;;;;;5096649;28;20063;-73
2021/04/20 04:07:12;;;;;;;16.63;11.88;;;7.70;99.90;;;;;;5096406;28;20387;-72
2021/04/20 04:09:40;;;;;;;20.67;12.77;;;7.80;99.90;;;;;;5096553;28;20024;-72
2021/04/20 04:12:08;;;;;;;19.40;13.07;;;7.80;99.90;;;;;;5114531;28;20028;-71
2021/04/20 04:14:36;;;;;;;22.45;14.23;;;7.80;99.90;;;;;;5096523;28;20024;-72
2021/04/20 04:17:05;;;;;;;22.45;14.73;;;7.90;99.90;;;;;;5114606;28;20036;-71
2021/04/20 04:19:44;;;;;;;25.58;15.90;;;7.90;99.90;;;;;;5114676;28;20023;-72
2021/04/20 04:22:18;;;;;;;27.70;16.33;;;8.00;99.90;;;;;;5114315;28;20106;-73
2021/04/20 04:24:48;;;;;;;33.00;20.40;;;8.00;99.90;;;;;;5114562;28;20062;-72
2021/04/20 04:27:17;;;;;;;32.97;21.60;;;8.00;99.90;;;;;;5096195;28;20475;-70
2021/04/20 04:29:46;;;;;;;29.85;19.10;;;8.00;99.90;;;;;;5096109;28;20027;-72
2021/04/20 04:32:16;;;;;;;25.35;18.42;;;8.10;99.90;;;;;;5114374;28;20106;-71
2021/04/20 04:34:43;;;;;;;25.45;16.30;;;8.10;99.90;;;;;;5096061;28;20426;-70
2021/04/20 04:37:10;;;;;;;24.23;15.73;;;8.10;99.90;;;;;;5095977;28;20031;-71
2021/04/20 04:39:36;;;;;;;20.40;15.45;;;8.20;99.90;;;;;;5113960;28;20095;-71
2021/04/20 04:42:03;;;;;;;25.25;14.82;;;8.20;99.90;;;;;;5096008;28;20035;-70
2021/04/20 04:44:29;;;;;;;22.33;15.70;;;8.30;99.90;;;;;;5114201;28;20028;-70
2021/04/20 04:46:55;;;;;;;25.20;16.80;;;8.30;99.90;;;;;;5113856;28;20383;-71
2021/04/20 04:49:22;;;;;;;24.80;15.88;;;8.30;99.90;;;;;;5095854;28;20027;-71
2021/04/20 04:51:49;;;;;;;23.85;15.75;;;8.30;99.90;;;;;;5095780;28;20041;-70
2021/04/20 04:54:17;;;;;;;28.95;15.32;;;8.40;99.90;;;;;;5114036;28;20020;-70
2021/04/20 04:56:44;;;;;;;27.15;18.30;;;8.40;99.90;;;;;;5113895;28;20456;-71
2021/04/20 04:59:14;;;;;;;27.60;17.88;;;8.40;99.90;;;;;;5113370;28;20497;-70
2021/04/20 05:01:41;;;;;;;24.58;18.08;;;8.40;99.90;;;;;;5113839;28;20372;-71
2021/04/20 05:04:09;;;;;;;32.00;19.42;;;8.40;99.90;;;;;;5113766;28;20027;-71
2021/04/20 05:06:53;;;;;;;28.20;17.27;;;8.40;99.90;;;;;;5113758;28;20032;-71
2021/04/20 05:09:23;;;;;;;22.63;16.88;;;8.50;99.90;;;;;;5113797;28;20049;-72
2021/04/20 05:11:51;;;;;;;32.22;19.92;;;8.50;99.90;;;;;;5113807;28;20030;-72
2021/04/20 05:14:19;;;;;;;33.72;22.20;;;8.50;99.90;;;;;;5095366;28;20122;-71
2021/04/20 05:16:51;;;;;;;37.83;25.40;;;8.40;99.90;;;;;;5113563;28;20122;-70
2021/04/20 05:19:29;;;;;;;37.15;24.65;;;8.50;99.90;;;;;;5113583;28;20031;-73
2021/04/20 05:21:59;;;;;;;32.33;22.08;;;8.50;99.90;;;;;;5112833;28;20031;-71
2021/04/20 05:24:25;;;;;;;27.63;19.08;;;8.50;99.90;;;;;;5112995;28;20031;-71
2021/04/20 05:26:51;;;;;;;29.02;19.88;;;8.50;99.90;;;;;;5094706;28;20075;-69
2021/04/20 05:29:17;;;;;;;29.15;19.63;;;8.50;99.90;;;;;;5113632;28;20024;-70
2021/04/20 05:31:45;;;;;;;30.40;19.30;;;8.60;99.90;;;;;;5095214;28;20030;-71
2021/04/20 05:34:11;;;;;;;33.80;20.02;;;8.60;99.90;;;;;;5113437;28;20027;-72
2021/04/20 05:36:38;;;;;;;30.20;20.65;;;8.60;99.90;;;;;;5112953;28;20539;-71
2021/04/20 05:39:10;;;;;;;31.77;20.58;;;8.60;99.90;;;;;;5094997;28;20044;-71
2021/04/20 05:41:37;;;;;;;33.03;21.98;;;8.60;99.90;;;;;;5113327;28;20032;-70
2021/04/20 05:44:05;;;;;;;33.97;21.27;;;8.70;99.90;;;;;;5113312;28;20107;-70
2021/04/20 05:46:34;;;;;;;30.63;20.00;;;8.70;99.90;;;;;;5113280;28;20426;-70
2021/04/20 05:49:01;;;;;;;27.88;18.48;;;8.70;99.90;;;;;;5094956;28;20429;-71
2021/04/20 05:51:27;;;;;;;25.92;17.70;;;8.70;99.90;;;;;;5094936;28;20050;-71
2021/04/20 05:53:53;;;;;;;23.05;17.98;;;8.70;99.90;;;;;;5113029;28;20496;-72
2021/04/20 05:56:22;;;;;;;30.40;18.40;;;8.70;99.90;;;;;;5113103;28;20468;-70
2021/04/20 05:58:56;;;;;;;25.70;17.52;;;8.80;99.90;;;;;;5113216;28;20032;-72
2021/04/20 06:01:24;;;;;;;24.23;17.90;;;8.80;99.90;;;;;;5113384;28;20027;-72
2021/04/20 06:03:51;;;;;;;28.75;19.50;;;8.80;99.90;;;;;;5094786;28;20034;-72
2021/04/20 06:06:20;;;;;;;31.27;21.33;;;8.80;99.90;;;;;;5113239;28;20322;-70
2021/04/20 06:08:48;;;;;;;30.52;20.35;;;8.90;99.90;;;;;;5113430;28;20024;-72
2021/04/20 06:11:15;;;;;;;32.42;21.92;;;8.90;99.90;;;;;;5113377;28;20073;-71
2021/04/20 06:13:42;;;;;;;29.70;19.77;;;9.00;99.90;;;;;;5094757;28;20703;-69
2021/04/20 06:16:09;;;;;;;32.88;22.17;;;8.90;99.90;;;;;;5113018;28;20051;-70
2021/04/20 06:18:38;;;;;;;23.92;18.58;;;9.00;99.90;;;;;;5112963;28;20128;-70
2021/04/20 06:21:06;;;;;;;27.33;19.77;;;9.00;99.90;;;;;;5112962;28;20032;-70
2021/04/20 06:23:33;;;;;;;30.83;20.83;;;9.10;99.90;;;;;;5094757;28;20027;-70
2021/04/20 06:26:01;;;;;;;26.38;18.77;;;9.10;99.90;;;;;;5113018;28;20113;-72
2021/04/20 06:28:29;;;;;;;27.13;19.65;;;9.20;99.90;;;;;;5112968;28;20031;-71
2021/04/20 06:31:03;;;;;;;25.88;18.33;;;9.20;99.90;;;;;;5094572;28;20036;-70
2021/04/20 06:33:34;;;;;;;31.80;20.27;;;9.20;99.90;;;;;;5112598;28;20054;-70
2021/04/20 06:36:05;;;;;;;28.97;19.00;;;9.20;99.90;;;;;;5113800;28;20027;-73
2021/04/20 06:38:33;;;;;;;27.42;18.23;;;9.20;99.90;;;;;;5098086;28;20286;-70
2021/04/20 06:41:00;;;;;;;30.27;19.50;;;9.20;99.90;;;;;;5098169;28;20032;-71
2021/04/20 06:43:30;;;;;;;27.90;19.08;;;9.30;99.90;;;;;;5098176;28;20026;-72
2021/04/20 06:46:08;;;;;;;26.63;18.70;;;9.30;99.90;;;;;;5098059;28;20081;-71
2021/04/20 06:48:46;;;;;;;30.80;19.58;;;9.30;99.90;;;;;;5098353;28;20420;-73
2021/04/20 06:51:16;;;;;;;27.00;18.77;;;9.30;99.90;;;;;;5116345;28;20073;-72
2021/04/20 06:53:48;;;;;;;27.10;18.63;;;9.30;99.90;;;;;;5116357;28;20368;-74
2021/04/20 06:56:29;;;;;;;29.52;20.33;;;9.40;99.90;;;;;;5116227;28;20028;-71
2021/04/20 06:59:16;;;;;;;28.05;18.95;;;9.40;99.90;;;;;;5116258;28;20031;-71
2021/04/20 07:01:58;;;;;;;29.73;19.80;;;9.40;99.90;;;;;;5116220;28;20035;-71
2021/04/20 07:04:28;;;;;;;36.35;20.67;;;9.50;99.90;;;;;;5097858;28;20027;-72
2021/04/20 07:07:50;;;;;;;30.23;19.92;;;9.60;99.90;;;;;;5097524;28;20089;-72
2021/04/20 07:10:22;;;;;;;28.60;19.43;;;9.70;99.90;;;;;;5002151;28;20172;-73
2021/04/20 07:12:51;;;;;;;29.05;19.42;;;9.90;99.90;;;;;;5112966;28;20039;-72
2021/04/20 07:15:21;;;;;;;30.35;19.80;;;9.90;99.90;;;;;;5096797;28;20165;-71
2021/04/20 07:18:05;;;;;;;27.95;18.73;;;10.10;99.90;;;;;;5097263;28;20090;-72
2021/04/20 07:20:57;;;;;;;31.25;20.63;;;10.20;99.90;;;;;;5112768;28;20031;-74
2021/04/20 07:23:41;;;;;;;27.48;18.23;;;10.40;99.90;;;;;;5097002;28;20023;-72
2021/04/20 07:26:29;;;;;;;25.08;16.88;;;10.60;99.90;;;;;;5115288;28;20081;-74
2021/04/20 07:29:15;;;;;;;19.67;14.45;;;10.70;99.90;;;;;;5097309;28;20445;-74
2021/04/20 07:32:02;;;;;;;16.38;12.27;;;10.80;99.90;;;;;;5115598;28;20038;-73
2021/04/20 07:34:40;;;;;;;20.67;13.40;;;10.80;99.90;;;;;;5097165;28;20061;-72
2021/04/20 07:37:40;;;;;;;20.13;16.70;;;10.90;99.90;;;;;;5113931;27;20028;-72
2021/04/20 07:40:27;;;;;;;21.90;14.70;;;11.10;99.90;;;;;;5114696;28;20027;-71
2021/04/20 07:43:00;;;;;;;14.75;11.25;;;11.10;99.90;;;;;;5115554;27;20046;-71
2021/04/20 07:45:36;;;;;;;19.25;14.13;;;11.20;99.90;;;;;;5115301;28;20020;-71
2021/04/20 07:48:18;;;;;;;14.32;10.63;;;11.30;99.90;;;;;;5114792;28;20489;-70
2021/04/20 07:50:47;;;;;;;15.52;11.70;;;11.30;99.90;;;;;;5096829;28;20059;-70
2021/04/20 07:53:25;;;;;;;18.20;12.80;;;11.40;99.90;;;;;;5115192;28;20026;-70
2021/04/20 07:56:15;;;;;;;17.63;12.32;;;11.50;99.90;;;;;;5115172;28;20026;-70
2021/04/20 07:58:46;;;;;;;16.65;12.45;;;11.50;99.90;;;;;;5114856;28;20066;-72
2021/04/20 08:01:29;;;;;;;18.83;14.40;;;11.70;99.90;;;;;;5095890;28;20024;-70
2021/04/20 08:04:20;;;;;;;19.08;13.95;;;12.00;99.90;;;;;;5114234;28;20043;-69
2021/04/20 08:06:47;;;;;;;14.32;11.20;;;12.00;99.90;;;;;;5096627;28;20040;-70
2021/04/20 08:09:21;;;;;;;16.77;12.25;;;12.00;99.90;;;;;;5114838;28;20020;-72
2021/04/20 08:11:52;;;;;;;15.93;12.02;;;12.20;99.90;;;;;;5114687;28;20100;-69
2021/04/20 08:14:43;;;;;;;16.85;13.32;;;12.40;99.60;;;;;;5096469;28;20114;-69
2021/04/20 08:17:19;;;;;;;16.48;13.00;;;12.50;98.40;;;;;;5096301;28;20058;-71
2021/04/20 08:20:01;;;;;;;21.38;14.13;;;12.60;97.80;;;;;;5114406;28;20107;-69
2021/04/20 08:22:28;;;;;;;;;;;12.90;96.90;;;;;;5096752;28;20088;-70
2021/04/20 08:25:05;;;;;;;35.35;21.45;;;12.90;97.60;;;;;;5114589;28;19968;-69
2021/04/20 08:27:52;;;;;;;51.97;32.08;;;13.00;97.00;;;;;;5114428;28;20036;-69
2021/04/20 08:30:33;;;;;;;48.63;33.55;;;13.30;96.70;;;;;;5114468;28;20030;-69
2021/04/20 08:33:06;;;;;;;24.17;16.97;;;13.50;96.00;;;;;;5114378;28;20460;-69
2021/04/20 08:35:33;;;;;;;26.77;19.35;;;13.50;96.20;;;;;;5114402;28;20268;-69
2021/04/20 08:38:29;;;;;;;26.98;19.23;;;13.60;95.30;;;;;;5095530;28;20035;-68
2021/04/20 08:41:20;;;;;;;21.95;17.30;;;13.20;95.10;;;;;;5113930;28;20034;-67
2021/04/20 08:44:12;;;;;;;23.63;18.15;;;13.10;95.50;;;;;;5114239;28;20023;-69
2021/04/20 08:46:55;;;;;;;20.13;16.00;;;13.10;96.10;;;;;;5114380;28;20027;-71
2021/04/20 08:49:43;;;;;;;25.30;18.05;;;13.10;96.20;;;;;;5113702;28;20516;-69
2021/04/20 08:52:37;;;;;;;19.63;14.23;;;13.30;95.40;;;;;;5113934;28;20023;-69
2021/04/20 08:55:15;;;;;;;25.50;16.55;;;13.60;94.80;;;;;;5113952;28;20028;-69
2021/04/20 08:58:18;;;;;;;20.95;15.25;;;14.20;95.40;;;;;;5113763;28;20443;-69
2021/04/20 09:01:18;;;;;;;21.42;15.10;;;14.30;94.10;;;;;;5095337;28;20028;-69
2021/04/20 09:04:21;;;;;;;40.47;27.40;;;14.40;93.90;;;;;;5095064;28;20023;-69
2021/04/20 09:06:51;;;;;;;22.05;16.02;;;14.50;92.00;;;;;;5113411;28;20059;-69
2021/04/20 09:09:20;;;;;;;18.60;15.55;;;14.20;91.00;;;;;;5113754;28;20024;-70
2021/04/20 09:11:54;;;;;;;20.38;15.30;;;14.30;91.20;;;;;;5113273;28;20380;-69
2021/04/20 09:17:49;;;;;;;24.08;17.10;;;14.80;91.00;;;;;;5010763;28;20107;-69
2021/04/20 09:20:41;;;;;;;18.25;14.55;;;15.40;90.80;;;;;;4994512;28;20125;-70
2021/04/20 09:23:29;;;;;;;20.60;14.07;;;15.80;86.10;;;;;;5009250;28;20042;-72
2021/04/20 09:26:16;;;;;;;20.02;15.48;;;15.50;80.40;;;;;;5069363;28;20063;-72
2021/04/20 09:28:57;;;;;;;22.33;15.82;;;15.20;85.20;;;;;;5094892;28;20038;-70
2021/04/20 09:31:30;;;;;;;22.13;16.38;;;15.20;84.40;;;;;;5113197;28;20047;-70
2021/04/20 09:33:55;;;;;;;;;;;15.10;87.70;;;;;;5113868;28;20032;-70
2021/04/20 09:36:23;;;;;;;19.15;14.27;;;15.20;89.30;;;;;;5095077;28;19915;-68
2021/04/20 09:38:50;;;;;;;17.88;13.25;;;15.10;82.60;;;;;;5113373;28;20119;-69
2021/04/20 09:41:30;;;;;;;24.00;16.38;;;15.10;84.10;;;;;;5113417;28;20081;-70
2021/04/20 09:44:13;;;;;;;19.67;14.27;;;14.80;85.90;;;;;;5113463;28;20016;-71
2021/04/20 09:46:47;;;;;;;20.45;14.38;;;14.40;87.80;;;;;;5113316;28;20482;-70
2021/04/20 09:49:40;;;;;;;36.35;22.77;;;14.10;87.30;;;;;;5094482;28;20110;-70
2021/04/20 09:52:14;;;;;;;60.33;37.80;;;14.10;90.00;;;;;;5094882;28;20460;-70
2021/04/20 09:54:56;;;;;;;33.10;22.65;;;14.30;90.20;;;;;;5094894;28;20023;-73
2021/04/20 09:57:28;;;;;;;;;;;14.80;89.50;;;;;;5113380;28;20049;-70
2021/04/20 10:00:00;;;;;;;22.67;16.77;;;15.00;86.80;;;;;;5113213;28;19931;-73
2021/04/20 10:02:26;;;;;;;24.00;16.70;;;14.70;83.80;;;;;;5113285;28;20034;-70
2021/04/20 10:05:16;;;;;;;25.67;18.45;;;14.70;85.80;;;;;;5113399;28;20028;-75
2021/04/20 10:08:07;;;;;;;29.05;18.50;;;14.60;84.10;;;;;;5094869;28;20038;-74
2021/04/20 10:11:14;;;;;;;23.88;17.95;;;14.60;85.30;;;;;;5114984;28;20051;-71
2021/04/20 10:14:12;;;;;;;25.40;18.40;;;14.80;84.90;;;;;;5116580;28;20035;-73
2021/04/20 10:16:59;;;;;;;21.55;16.30;;;15.00;84.40;;;;;;5116981;28;20026;-70
2021/04/20 10:19:41;;;;;;;24.50;15.00;;;15.10;82.10;;;;;;5117234;28;20031;-71
2021/04/20 10:22:24;;;;;;;21.73;16.20;;;15.60;79.00;;;;;;5116891;28;20571;-71
2021/04/20 10:25:03;;;;;;;107.25;58.97;;;;;;;;;;5116500;28;20051;-70
2021/04/20 10:27:30;;;;;;;20.73;15.95;;;17.00;76.70;;;;;;5117175;28;20118;-72
2021/04/20 10:30:17;;;;;;;17.10;14.13;;;17.50;72.50;;;;;;5116751;28;20486;-71
2021/04/20 10:32:45;;;;;;;19.35;13.95;;;;;;;;;;5116744;28;20026;-72
2021/04/20 10:35:17;;;;;;;22.90;15.70;;;;;;;;;;5116351;28;20364;-71
2021/04/20 10:37:51;;;;;;;19.98;14.68;;;;;;;;;;5116576;28;20028;-71
2021/04/20 10:40:35;;;;;;;22.67;17.08;;;18.10;59.90;;;;;;5116863;28;20053;-71
2021/04/20 10:43:12;;;;;;;20.90;15.50;;;17.40;64.70;;;;;;5098214;28;20028;-70
2021/04/20 10:45:40;;;;;;;29.65;23.90;;;16.70;67.30;;;;;;5098091;28;20024;-71
2021/04/20 10:48:08;;;;;;;18.65;15.63;;;16.10;69.70;;;;;;5098082;28;20027;-70
2021/04/20 10:50:37;;;;;;;19.00;13.48;;;15.80;72.50;;;;;;5097574;28;20023;-70
2021/04/20 10:53:18;;;;;;;20.92;14.45;;;15.80;68.50;;;;;;5097798;28;20077;-71
2021/04/20 10:56:10;;;;;;;21.30;15.68;;;15.70;72.40;;;;;;5116133;28;20020;-72
2021/04/20 10:58:41;;;;;;;18.65;13.68;;;15.90;71.00;;;;;;5115849;28;20038;-72
2021/04/20 11:01:07;;;;;;;17.00;12.77;;;15.70;70.40;;;;;;5116093;28;20019;-71
2021/04/20 11:03:36;;;;;;;20.05;14.50;;;15.50;71.90;;;;;;5097381;28;20047;-72
2021/04/20 11:06:06;;;;;;;15.88;12.88;;;15.10;72.60;;;;;;5094393;28;20031;-73
2021/04/20 11:08:45;;;;;;;15.50;11.85;;;14.80;74.10;;;;;;5097498;28;20144;-71
2021/04/20 11:11:19;;;;;;;12.65;8.70;;;14.60;74.60;;;;;;5097625;28;20019;-74
2021/04/20 11:13:45;;;;;;;15.20;11.00;;;14.30;71.10;;;;;;5097705;28;20088;-73
2021/04/20 11:16:14;;;;;;;24.50;15.32;;;14.00;74.50;;;;;;5097509;28;20455;-72
2021/04/20 11:18:44;;;;;;;22.00;14.43;;;14.00;78.30;;;;;;5097341;28;20428;-74
2021/04/20 11:21:20;;;;;;;19.50;13.02;;;13.90;80.10;;;;;;5097119;28;20035;-73
2021/04/20 11:24:08;;;;;;;29.98;20.00;;;13.60;82.30;;;;;;5115589;28;20024;-73
2021/04/20 11:26:41;;;;;;;16.17;11.10;;;13.20;90.40;;;;;;5115714;28;20086;-71
2021/04/20 11:29:13;;;;;;;16.65;9.65;;;12.90;93.50;;;;;;5097401;28;20028;-69
2021/04/20 11:31:45;;;;;;;15.45;11.15;;;12.40;93.90;;;;;;5097240;28;20035;-70
2021/04/20 11:34:19;;;;;;;14.15;9.23;;;12.30;96.80;;;;;;5115492;28;20027;-73
2021/04/20 11:37:09;;;;;;;17.50;11.40;;;;;;;;;;5115753;28;20020;-71
2021/04/20 11:40:06;;;;;;;29.52;12.02;;;12.00;97.80;;;;;;5102318;28;20039;-71
2021/04/20 11:42:43;;;;;;;18.48;11.38;;;11.90;98.20;;;;;;5107389;28;20385;-74
2021/04/20 11:45:21;;;;;;;18.95;12.27;;;11.90;99.90;;;;;;5096929;28;20057;-72
2021/04/20 11:47:56;;;;;;;20.88;12.95;;;12.00;99.90;;;;;;5115287;28;20032;-72
2021/04/20 11:50:24;;;;;;;13.43;10.30;;;12.10;99.90;;;;;;5096764;28;20031;-71
2021/04/20 11:52:59;;;;;;;18.30;11.98;;;12.20;99.50;;;;;;5115139;28;20028;-72
2021/04/20 11:55:32;;;;;;;20.88;12.85;;;12.50;98.50;;;;;;5096336;28;20119;-71
2021/04/20 11:58:07;;;;;;;23.05;14.65;;;12.90;97.60;;;;;;5096629;28;20041;-73
2021/04/20 12:00:36;;;;;;;16.75;11.63;;;13.10;96.60;;;;;;5096723;28;20059;-73
2021/04/20 12:03:22;;;;;;;12.38;9.15;;;13.40;95.70;;;;;;5114779;28;20028;-72
2021/04/20 12:05:54;;;;;;;12.13;8.85;;;13.70;92.60;;;;;;5096616;28;20084;-72
2021/04/20 12:08:21;;;;;;;;;;;14.00;93.90;;;;;;5115188;28;20030;-72
2021/04/20 12:10:53;;;;;;;12.70;8.90;;;14.00;90.00;;;;;;5096472;28;19911;-71
2021/04/20 12:13:24;;;;;;;15.52;8.27;;;14.00;90.30;;;;;;5114806;28;20080;-73
2021/04/20 12:15:59;;;;;;;12.18;8.38;;;14.20;90.30;;;;;;5096402;28;20032;-72
2021/04/20 12:18:28;;;;;;;12.68;8.25;;;14.40;90.90;;;;;;5114319;28;20063;-71
2021/04/20 12:21:00;;;;;;;12.50;7.60;;;14.70;85.40;;;;;;5114629;28;20112;-72
2021/04/20 12:23:29;;;;;;;9.77;6.30;;;14.80;78.50;;;;;;5114604;28;20059;-73
2021/04/20 12:25:55;;;;;;;8.65;6.22;;;15.60;76.30;;;;;;5114300;28;20092;-73
2021/04/20 12:28:22;;;;;;;6.45;5.78;;;;;;;;;;5114236;28;20104;-72
2021/04/20 12:30:52;;;;;;;11.55;7.70;;;;;;;;;;5114500;28;20058;-71
2021/04/20 12:33:32;;;;;;;10.10;7.60;;;;;;;;;;5095305;28;20055;-73
2021/04/20 12:35:59;;;;;;;12.43;8.35;;;;;;;;;;5114404;28;20051;-71
2021/04/20 12:38:27;;;;;;;12.30;8.13;;;;;;;;;;5095977;28;20110;-69
2021/04/20 12:41:02;;;;;;;14.05;8.55;;;22.00;53.60;;;;;;5114286;28;20112;-72
2021/04/20 12:43:31;;;;;;;10.48;8.13;;;21.80;53.40;;;;;;5096012;28;20086;-72
2021/04/20 12:46:09;;;;;;;10.32;8.10;;;20.70;55.40;;;;;;5114496;28;20468;-70
2021/04/20 12:48:38;;;;;;;15.05;11.23;;;19.90;59.40;;;;;;5114204;28;20039;-70
2021/04/20 12:51:07;;;;;;;10.13;7.85;;;17.30;66.50;;;;;;5095753;28;20482;-71
2021/04/20 12:53:34;;;;;;;8.63;7.72;;;16.80;68.90;;;;;;5113850;28;20049;-71
2021/04/20 12:56:02;;;;;;;20.55;14.38;;;16.20;73.90;;;;;;5095751;28;20388;-73
2021/04/20 12:58:32;;;;;;;15.68;11.73;;;15.70;74.70;;;;;;5113840;28;20024;-70
2021/04/20 13:01:02;;;;;;;15.85;12.25;;;15.30;75.80;;;;;;5113927;28;20062;-74
2021/04/20 13:03:29;;;;;;;25.45;16.90;;;14.90;80.90;;;;;;5095578;28;20035;-73
2021/04/20 13:05:56;;;;;;;20.63;13.88;;;14.80;80.40;;;;;;5113671;28;20076;-71
2021/04/20 13:08:24;;;;;;;18.33;13.27;;;14.90;81.30;;;;;;5113555;28;20388;-72
2021/04/20 13:10:58;;;;;;;13.30;10.27;;;14.80;85.60;;;;;;5095464;28;20160;-73
2021/04/20 13:13:27;;;;;;;15.77;11.35;;;14.90;81.90;;;;;;5095497;28;20058;-75